createdAt,value
2022-09-07T00:00:42.804Z,0.00
2022-09-07T00:01:41.800Z,0.00
2022-09-07T00:02:41.936Z,0.00
2022-09-07T00:03:42.008Z,0.00
2022-09-07T00:04:42.306Z,0.00
2022-09-07T00:05:43.095Z,0.00
2022-09-07T00:07:42.341Z,0.00
2022-09-07T00:08:41.388Z,0.00
2022-09-07T00:09:41.454Z,0.00
2022-09-07T00:10:41.584Z,0.00
2022-09-07T00:11:41.635Z,0.00
2022-09-07T00:12:41.711Z,0.00
2022-09-07T00:13:41.791Z,0.00
2022-09-07T00:14:41.885Z,0.00
2022-09-07T00:15:42.041Z,0.00
2022-09-07T00:16:42.156Z,0.00
2022-09-07T00:17:42.116Z,0.00
2022-09-07T00:18:45.744Z,0.00
2022-09-07T00:19:41.243Z,0.00
2022-09-07T00:20:41.357Z,0.00
2022-09-07T00:21:41.673Z,0.00
2022-09-07T00:22:41.560Z,0.00
2022-09-07T00:23:42.635Z,0.00
2022-09-07T00:24:41.759Z,0.00
2022-09-07T00:25:41.865Z,0.00
2022-09-07T00:26:42.005Z,0.00
2022-09-07T00:27:42.125Z,0.00
2022-09-07T00:28:41.365Z,0.00
2022-09-07T00:29:41.303Z,0.00
2022-09-07T00:30:41.430Z,0.00
2022-09-07T00:31:41.566Z,0.00
2022-09-07T00:32:41.678Z,0.00
2022-09-07T00:33:41.748Z,0.00
2022-09-07T00:34:41.849Z,0.00
2022-09-07T00:35:44.031Z,0.00
2022-09-07T00:36:41.033Z,0.00
2022-09-07T00:37:41.136Z,0.00
2022-09-07T00:38:41.283Z,0.00
2022-09-07T00:40:41.460Z,0.00
2022-09-07T00:41:41.579Z,0.00
2022-09-07T00:42:41.686Z,0.00
2022-09-07T00:43:41.817Z,0.00
2022-09-07T00:44:41.907Z,0.00
2022-09-07T00:45:40.984Z,0.00
2022-09-07T00:46:41.149Z,0.00
2022-09-07T00:47:41.212Z,0.00
2022-09-07T00:48:41.319Z,0.00
2022-09-07T00:49:41.467Z,0.00
2022-09-07T00:50:41.554Z,0.00
2022-09-07T00:51:41.663Z,0.00
2022-09-07T00:52:41.767Z,0.00
2022-09-07T00:54:41.934Z,0.00
2022-09-07T00:55:40.976Z,0.00
2022-09-07T00:56:42.028Z,0.00
2022-09-07T00:57:41.142Z,0.00
2022-09-07T00:58:41.234Z,0.00
2022-09-07T00:59:41.288Z,0.00
2022-09-07T01:00:41.407Z,0.00
2022-09-07T01:01:41.581Z,0.00
2022-09-07T01:02:41.716Z,0.00
2022-09-07T01:03:41.608Z,0.00
2022-09-07T01:04:40.649Z,0.00
2022-09-07T01:05:40.727Z,0.00
2022-09-07T01:06:40.828Z,0.00
2022-09-07T01:07:40.891Z,0.00
2022-09-07T01:08:40.963Z,0.00
2022-09-07T01:09:41.042Z,0.00
2022-09-07T01:10:41.140Z,0.00
2022-09-07T01:11:41.226Z,0.00
2022-09-07T01:12:41.315Z,0.00
2022-09-07T01:13:41.370Z,0.00
2022-09-07T01:14:41.497Z,0.00
2022-09-07T01:15:41.616Z,0.00
2022-09-07T01:16:40.589Z,0.00
2022-09-07T01:17:40.694Z,0.00
2022-09-07T01:18:40.730Z,0.00
2022-09-07T01:19:40.797Z,0.00
2022-09-07T01:20:40.895Z,0.00
2022-09-07T01:21:40.956Z,0.00
2022-09-07T01:22:41.045Z,0.00
2022-09-07T01:23:41.125Z,0.00
2022-09-07T01:24:41.190Z,0.00
2022-09-07T01:25:41.282Z,0.00
2022-09-07T01:26:41.367Z,0.00
2022-09-07T01:27:40.409Z,0.00
2022-09-07T01:28:40.471Z,0.00
2022-09-07T01:29:40.535Z,0.00
2022-09-07T01:30:40.607Z,0.00
2022-09-07T01:31:40.685Z,0.00
2022-09-07T01:32:40.746Z,0.00
2022-09-07T01:33:40.869Z,0.00
2022-09-07T01:34:40.949Z,0.00
2022-09-07T01:35:41.035Z,0.00
2022-09-07T01:36:41.123Z,0.00
2022-09-07T01:37:41.225Z,0.00
2022-09-07T01:38:40.278Z,0.00
2022-09-07T01:39:40.453Z,0.00
2022-09-07T01:40:41.439Z,0.00
2022-09-07T01:41:40.576Z,0.00
2022-09-07T01:42:40.665Z,0.00
2022-09-07T01:43:40.769Z,0.00
2022-09-07T01:44:40.861Z,0.00
2022-09-07T01:45:40.950Z,0.00
2022-09-07T01:46:41.089Z,0.00
2022-09-07T01:47:40.068Z,0.00
2022-09-07T01:48:40.183Z,0.00
2022-09-07T01:49:40.247Z,0.00
2022-09-07T01:50:40.366Z,0.00
2022-09-07T01:51:40.418Z,0.00
2022-09-07T01:52:40.505Z,0.00
2022-09-07T01:53:40.585Z,0.00
2022-09-07T01:54:40.675Z,0.00
2022-09-07T01:55:40.756Z,0.00
2022-09-07T01:56:40.840Z,0.00
2022-09-07T01:58:39.929Z,0.00
2022-09-07T01:59:39.981Z,0.00
2022-09-07T02:00:40.065Z,0.00
2022-09-07T02:01:40.216Z,0.00
2022-09-07T02:02:40.257Z,0.00
2022-09-07T02:03:40.267Z,0.00
2022-09-07T02:04:40.342Z,0.00
2022-09-07T02:05:40.458Z,0.00
2022-09-07T02:06:40.550Z,0.00
2022-09-07T02:07:40.608Z,0.00
2022-09-07T02:08:40.663Z,0.00
2022-09-07T02:09:40.751Z,0.00
2022-09-07T02:10:39.774Z,0.00
2022-09-07T02:11:39.847Z,0.00
2022-09-07T02:12:40.111Z,0.00
2022-09-07T02:13:40.001Z,0.00
2022-09-07T02:14:40.069Z,0.00
2022-09-07T02:15:40.220Z,0.00
2022-09-07T02:16:40.215Z,0.00
2022-09-07T02:17:42.404Z,0.00
2022-09-07T02:18:40.369Z,0.00
2022-09-07T02:19:40.452Z,0.00
2022-09-07T02:20:39.886Z,0.00
2022-09-07T02:21:39.985Z,0.00
2022-09-07T02:22:40.050Z,0.00
2022-09-07T02:23:40.194Z,0.00
2022-09-07T02:24:40.214Z,0.00
2022-09-07T02:25:40.285Z,0.00
2022-09-07T02:26:40.348Z,0.00
2022-09-07T02:27:40.434Z,0.00
2022-09-07T02:28:40.516Z,0.00
2022-09-07T02:29:39.530Z,0.00
2022-09-07T02:30:39.693Z,0.00
2022-09-07T02:31:39.677Z,0.00
2022-09-07T02:32:39.760Z,0.00
2022-09-07T02:33:39.828Z,0.00
2022-09-07T02:34:39.940Z,0.00
2022-09-07T02:35:39.995Z,0.00
2022-09-07T02:36:40.080Z,0.00
2022-09-07T02:37:40.185Z,0.00
2022-09-07T02:38:40.255Z,0.00
2022-09-07T02:39:40.410Z,0.00
2022-09-07T02:40:39.376Z,0.00
2022-09-07T02:41:39.459Z,0.00
2022-09-07T02:42:39.546Z,0.00
2022-09-07T02:43:39.620Z,0.00
2022-09-07T02:44:39.677Z,0.00
2022-09-07T02:45:39.813Z,0.00
2022-09-07T02:46:39.915Z,0.00
2022-09-07T02:47:39.954Z,0.00
2022-09-07T02:48:40.039Z,0.00
2022-09-07T02:49:40.116Z,0.00
2022-09-07T02:50:40.201Z,0.00
2022-09-07T02:51:40.260Z,0.00
2022-09-07T02:52:39.309Z,0.00
2022-09-07T02:53:39.359Z,0.00
2022-09-07T02:54:39.470Z,0.00
2022-09-07T02:55:39.542Z,0.00
2022-09-07T02:56:39.668Z,0.00
2022-09-07T02:57:39.687Z,0.00
2022-09-07T02:58:39.762Z,0.00
2022-09-07T02:59:39.854Z,0.00
2022-09-07T03:00:39.929Z,0.00
2022-09-07T03:01:40.068Z,0.00
2022-09-07T03:02:40.156Z,0.00
2022-09-07T03:03:40.089Z,0.00
2022-09-07T03:04:39.121Z,0.00
2022-09-07T03:05:39.160Z,0.00
2022-09-07T03:07:44.015Z,0.00
2022-09-07T03:08:40.290Z,0.00
2022-09-07T03:09:39.361Z,0.00
2022-09-07T03:10:39.423Z,0.00
2022-09-07T03:11:39.481Z,0.00
2022-09-07T03:12:39.610Z,0.00
2022-09-07T03:13:39.626Z,0.00
2022-09-07T03:14:39.683Z,0.00
2022-09-07T03:15:39.797Z,0.00
2022-09-07T03:16:39.838Z,0.00
2022-09-07T03:17:38.867Z,0.00
2022-09-07T03:18:39.153Z,0.00
2022-09-07T03:19:39.015Z,0.00
2022-09-07T03:20:39.099Z,0.00
2022-09-07T03:21:39.170Z,0.00
2022-09-07T03:22:39.258Z,0.00
2022-09-07T03:23:39.383Z,0.00
2022-09-07T03:25:39.483Z,0.00
2022-09-07T03:26:39.555Z,0.00
2022-09-07T03:27:39.632Z,0.00
2022-09-07T03:28:39.689Z,0.00
2022-09-07T03:29:41.861Z,0.00
2022-09-07T03:30:38.802Z,0.00
2022-09-07T03:31:38.855Z,0.00
2022-09-07T03:32:38.918Z,0.00
2022-09-07T03:33:38.988Z,0.00
2022-09-07T03:34:38.797Z,0.00
2022-09-07T03:35:38.826Z,0.00
2022-09-07T03:36:38.907Z,0.00
2022-09-07T03:37:38.986Z,0.00
2022-09-07T03:38:39.007Z,0.00
2022-09-07T03:39:39.125Z,0.00
2022-09-07T03:40:39.145Z,0.00
2022-09-07T03:41:40.253Z,0.00
2022-09-07T03:42:39.304Z,0.00
2022-09-07T03:43:38.665Z,0.00
2022-09-07T03:44:38.761Z,0.00
2022-09-07T03:45:38.928Z,0.00
2022-09-07T03:46:38.967Z,0.00
2022-09-07T03:47:39.052Z,0.00
2022-09-07T03:48:39.141Z,0.00
2022-09-07T03:49:39.221Z,0.00
2022-09-07T03:50:39.333Z,0.00
2022-09-07T03:51:39.400Z,0.00
2022-09-07T03:52:38.441Z,0.00
2022-09-07T03:54:39.709Z,0.00
2022-09-07T03:55:38.760Z,0.00
2022-09-07T03:56:38.866Z,0.00
2022-09-07T03:57:38.921Z,0.00
2022-09-07T03:58:39.010Z,0.00
2022-09-07T03:59:39.107Z,0.00
2022-09-07T04:00:39.211Z,0.00
2022-09-07T04:01:39.336Z,0.00
2022-09-07T04:02:38.599Z,0.00
2022-09-07T04:03:38.449Z,0.00
2022-09-07T04:04:38.534Z,0.00
2022-09-07T04:05:38.620Z,0.02
2022-09-07T04:06:38.704Z,0.02
2022-09-07T04:07:38.818Z,0.02
2022-09-07T04:08:38.879Z,0.01
2022-09-07T04:09:44.152Z,0.01
2022-09-07T04:10:39.075Z,0.01
2022-09-07T04:11:39.187Z,0.01
2022-09-07T04:12:38.218Z,0.05
2022-09-07T04:13:38.329Z,0.03
2022-09-07T04:14:38.381Z,0.02
2022-09-07T04:15:38.483Z,0.05
2022-09-07T04:16:38.627Z,0.03
2022-09-07T04:17:38.693Z,0.06
2022-09-07T04:18:38.794Z,0.04
2022-09-07T04:19:38.882Z,0.06
2022-09-07T04:20:38.960Z,0.08
2022-09-07T04:21:39.023Z,0.20
2022-09-07T04:22:38.093Z,0.40
2022-09-07T04:23:38.155Z,0.29
2022-09-07T04:24:38.332Z,0.34
2022-09-07T04:25:38.349Z,0.35
2022-09-07T04:26:38.449Z,0.31
2022-09-07T04:27:38.528Z,0.56
2022-09-07T04:28:38.635Z,0.53
2022-09-07T04:29:38.772Z,0.55
2022-09-07T04:30:38.874Z,0.83
2022-09-07T04:31:38.879Z,0.93
2022-09-07T04:32:37.925Z,1.04
2022-09-07T04:33:37.985Z,1.07
2022-09-07T04:34:38.079Z,1.42
2022-09-07T04:35:38.167Z,1.70
2022-09-07T04:36:38.239Z,1.84
2022-09-07T04:37:38.314Z,2.27
2022-09-07T04:38:38.407Z,2.61
2022-09-07T04:39:38.517Z,2.91
2022-09-07T04:40:38.583Z,3.49
2022-09-07T04:41:38.630Z,4.24
2022-09-07T04:42:38.698Z,5.30
2022-09-07T04:43:37.754Z,5.92
2022-09-07T04:44:37.823Z,6.90
2022-09-07T04:45:37.977Z,7.12
2022-09-07T04:46:37.995Z,8.53
2022-09-07T04:47:38.030Z,10.10
2022-09-07T04:48:38.114Z,11.77
2022-09-07T04:49:38.168Z,14.30
2022-09-07T04:50:38.227Z,16.38
2022-09-07T04:51:38.293Z,18.51
2022-09-07T04:52:38.351Z,21.17
2022-09-07T04:53:38.414Z,23.59
2022-09-07T04:54:38.477Z,26.10
2022-09-07T04:55:38.510Z,28.91
2022-09-07T04:56:37.548Z,31.80
2022-09-07T04:57:37.649Z,34.73
2022-09-07T04:58:37.786Z,37.58
2022-09-07T04:59:37.829Z,40.97
2022-09-07T05:00:37.848Z,44.39
2022-09-07T05:01:37.982Z,47.73
2022-09-07T05:02:38.051Z,51.61
2022-09-07T05:03:38.046Z,55.10
2022-09-07T05:04:38.109Z,59.07
2022-09-07T05:05:38.161Z,63.82
2022-09-07T05:06:38.248Z,68.37
2022-09-07T05:07:38.307Z,72.18
2022-09-07T05:08:38.352Z,77.41
2022-09-07T05:09:37.385Z,83.03
2022-09-07T05:10:37.459Z,89.52
2022-09-07T05:11:37.502Z,94.71
2022-09-07T05:12:37.605Z,98.58
2022-09-07T05:13:37.646Z,104.21
2022-09-07T05:14:37.723Z,107.78
2022-09-07T05:15:37.800Z,110.52
2022-09-07T05:16:37.921Z,113.23
2022-09-07T05:17:37.960Z,116.77
2022-09-07T05:18:38.134Z,121.28
2022-09-07T05:19:38.113Z,125.55
2022-09-07T05:20:38.211Z,131.66
2022-09-07T05:21:37.269Z,138.72
2022-09-07T05:22:37.345Z,146.01
2022-09-07T05:23:37.486Z,151.39
2022-09-07T05:24:37.504Z,159.96
2022-09-07T05:25:37.586Z,168.87
2022-09-07T05:26:37.671Z,177.07
2022-09-07T05:27:37.778Z,184.93
2022-09-07T05:28:37.864Z,194.19
2022-09-07T05:31:38.103Z,222.94
2022-09-07T05:32:37.224Z,236.73
2022-09-07T05:34:38.660Z,265.83
2022-09-07T05:35:37.525Z,279.33
2022-09-07T05:36:37.577Z,294.04
2022-09-07T05:37:37.678Z,307.77
2022-09-07T05:38:37.839Z,301.34
2022-09-07T05:39:37.922Z,307.37
2022-09-07T05:40:40.730Z,344.24
2022-09-07T05:41:37.000Z,348.83
2022-09-07T05:42:37.103Z,375.87
2022-09-07T05:44:45.879Z,416.52
2022-09-07T05:45:38.443Z,430.78
2022-09-07T05:46:37.451Z,433.38
2022-09-07T05:47:37.523Z,456.02
2022-09-07T05:48:37.599Z,484.10
2022-09-07T05:49:37.730Z,516.33
2022-09-07T05:50:37.771Z,530.38
2022-09-07T05:51:36.867Z,542.34
2022-09-07T05:52:36.939Z,554.51
2022-09-07T05:53:37.132Z,575.29
2022-09-07T05:54:37.148Z,553.80
2022-09-07T05:55:37.211Z,517.84
2022-09-07T05:56:37.498Z,517.50
2022-09-07T05:57:37.382Z,549.01
2022-09-07T05:58:37.460Z,512.07
2022-09-07T05:59:37.555Z,520.00
2022-09-07T06:00:37.617Z,533.32
2022-09-07T06:01:37.750Z,575.20
2022-09-07T06:02:39.802Z,550.34
2022-09-07T06:03:36.776Z,549.50
2022-09-07T06:04:36.861Z,510.06
2022-09-07T06:05:36.861Z,533.64
2022-09-07T06:06:36.933Z,629.93
2022-09-07T06:07:37.020Z,520.84
2022-09-07T06:08:37.011Z,535.73
2022-09-07T06:10:45.526Z,535.52
2022-09-07T06:11:38.206Z,555.13
2022-09-07T06:12:37.237Z,548.77
2022-09-07T06:13:37.307Z,538.92
2022-09-07T06:14:37.383Z,562.07
2022-09-07T06:15:37.437Z,579.20
2022-09-07T06:16:37.599Z,612.52
2022-09-07T06:17:36.525Z,611.40
2022-09-07T06:18:36.633Z,633.55
2022-09-07T06:19:36.672Z,649.61
2022-09-07T06:20:37.783Z,658.77
2022-09-07T06:21:36.793Z,668.64
2022-09-07T06:22:36.871Z,665.51
2022-09-07T06:23:37.019Z,670.50
2022-09-07T06:24:37.176Z,674.88
2022-09-07T06:25:37.215Z,682.80
2022-09-07T06:26:37.311Z,686.07
2022-09-07T06:27:37.456Z,685.29
2022-09-07T06:28:36.461Z,681.65
2022-09-07T06:29:36.514Z,682.96
2022-09-07T06:30:36.591Z,679.58
2022-09-07T06:32:45.265Z,683.32
2022-09-07T06:33:37.823Z,681.52
2022-09-07T06:34:36.907Z,682.12
2022-09-07T06:35:37.089Z,683.58
2022-09-07T06:36:38.006Z,681.78
2022-09-07T06:37:37.146Z,684.04
2022-09-07T06:38:37.264Z,687.92
2022-09-07T06:39:36.383Z,686.62
2022-09-07T06:40:36.535Z,690.75
2022-09-07T06:42:37.509Z,691.29
2022-09-07T06:43:36.572Z,690.35
2022-09-07T06:44:36.657Z,692.96
2022-09-07T06:45:36.753Z,690.02
2022-09-07T06:47:43.100Z,692.83
2022-09-07T06:48:37.789Z,691.71
2022-09-07T06:49:37.015Z,688.42
2022-09-07T06:50:36.038Z,696.76
2022-09-07T06:51:36.137Z,705.33
2022-09-07T06:53:39.298Z,711.49
2022-09-07T06:55:37.321Z,714.38
2022-09-07T06:56:36.434Z,713.88
2022-09-07T06:57:36.469Z,716.57
2022-09-07T06:58:39.202Z,728.35
2022-09-07T06:59:37.652Z,720.44
2022-09-07T07:00:36.779Z,724.64
2022-09-07T07:01:38.783Z,721.72
2022-09-07T07:02:36.856Z,728.04
2022-09-07T07:03:36.950Z,732.18
2022-09-07T07:04:40.609Z,738.85
2022-09-07T07:05:36.989Z,743.87
2022-09-07T07:06:36.088Z,749.04
2022-09-07T07:07:36.189Z,755.97
2022-09-07T07:08:36.212Z,768.71
2022-09-07T07:09:36.289Z,775.67
2022-09-07T07:10:36.333Z,780.99
2022-09-07T07:11:36.407Z,789.22
2022-09-07T07:13:12.497Z,794.50
2022-09-07T07:14:11.529Z,794.01
2022-09-07T07:15:11.576Z,802.69
2022-09-07T07:16:11.731Z,803.45
2022-09-07T07:17:11.705Z,806.96
2022-09-07T07:18:20.880Z,809.52
2022-09-07T07:19:12.835Z,813.34
2022-09-07T07:20:11.945Z,818.07
2022-09-07T07:21:12.941Z,830.55
2022-09-07T07:22:35.907Z,832.46
2022-09-07T07:23:13.197Z,838.01
2022-09-07T07:24:12.317Z,844.96
2022-09-07T07:25:12.281Z,849.03
2022-09-07T07:26:12.371Z,847.01
2022-09-07T07:27:11.392Z,844.24
2022-09-07T07:29:14.737Z,835.68
2022-09-07T07:30:11.571Z,833.67
2022-09-07T07:31:13.331Z,841.88
2022-09-07T07:32:11.681Z,853.42
2022-09-07T07:33:11.740Z,856.78
2022-09-07T07:34:11.861Z,862.30
2022-09-07T07:35:11.874Z,868.36
2022-09-07T07:36:11.950Z,869.22
2022-09-07T07:37:12.008Z,868.70
2022-09-07T07:40:21.271Z,879.20
2022-09-07T07:42:12.219Z,884.40
2022-09-07T07:43:11.232Z,886.43
2022-09-07T07:44:11.323Z,885.93
2022-09-07T07:46:12.640Z,892.95
2022-09-07T07:47:11.529Z,887.65
2022-09-07T07:48:11.528Z,882.01
2022-09-07T07:49:11.597Z,878.44
2022-09-07T07:51:12.692Z,877.61
2022-09-07T07:54:12.897Z,875.01
2022-09-07T07:56:12.008Z,875.05
2022-09-07T07:57:11.330Z,877.31
2022-09-07T07:58:11.139Z,881.62
2022-09-07T07:59:15.115Z,881.32
2022-09-07T08:00:11.224Z,878.06
2022-09-07T08:01:11.298Z,887.11
2022-09-07T08:02:11.402Z,884.00
2022-09-07T08:03:12.413Z,887.41
2022-09-07T08:04:11.426Z,811.54
2022-09-07T08:05:11.477Z,925.61
2022-09-07T08:06:11.507Z,869.73
2022-09-07T08:07:11.590Z,917.66
2022-09-07T08:08:11.681Z,863.44
2022-09-07T08:09:11.659Z,920.98
2022-09-07T08:10:11.747Z,884.50
2022-09-07T08:11:11.787Z,962.92
2022-09-07T08:12:10.817Z,937.79
2022-09-07T08:13:10.909Z,806.74
2022-09-07T08:14:12.005Z,960.03
2022-09-07T08:15:11.012Z,936.09
2022-09-07T08:16:11.154Z,763.14
2022-09-07T08:17:11.158Z,845.46
2022-09-07T08:18:11.229Z,865.57
2022-09-07T08:19:11.295Z,856.05
2022-09-07T08:20:11.331Z,934.98
2022-09-07T08:21:12.373Z,970.69
2022-09-07T08:22:11.423Z,906.81
2022-09-07T08:23:11.491Z,959.54
2022-09-07T08:24:11.498Z,1004.34
2022-09-07T08:25:11.534Z,1025.82
2022-09-07T08:26:10.570Z,792.20
2022-09-07T08:27:10.636Z,844.43
2022-09-07T08:28:10.681Z,969.76
2022-09-07T08:29:10.781Z,866.38
2022-09-07T08:30:10.860Z,1028.02
2022-09-07T08:31:10.961Z,891.11
2022-09-07T08:32:10.939Z,839.35
2022-09-07T08:33:11.000Z,1058.32
2022-09-07T08:34:11.073Z,1083.40
2022-09-07T08:35:11.103Z,1065.03
2022-09-07T08:36:11.166Z,940.91
2022-09-07T08:37:11.224Z,1006.99
2022-09-07T08:38:11.275Z,1014.43
2022-09-07T08:39:11.360Z,963.91
2022-09-07T08:40:11.505Z,891.12
2022-09-07T08:41:10.421Z,1095.27
2022-09-07T08:42:10.577Z,1101.46
2022-09-07T08:43:10.554Z,1128.17
2022-09-07T08:44:10.617Z,938.52
2022-09-07T08:45:10.713Z,1024.85
2022-09-07T08:46:10.800Z,1067.97
2022-09-07T08:47:10.842Z,1115.04
2022-09-07T08:48:10.892Z,1041.25
2022-09-07T08:49:10.985Z,965.48
2022-09-07T08:50:11.994Z,1116.21
2022-09-07T08:51:11.127Z,1080.64
2022-09-07T08:52:12.185Z,955.87
2022-09-07T08:53:10.302Z,1029.20
2022-09-07T08:54:10.356Z,988.58
2022-09-07T08:55:10.419Z,999.45
2022-09-07T08:56:10.527Z,1066.90
2022-09-07T08:57:25.987Z,1072.60
2022-09-07T08:58:22.158Z,944.56
2022-09-07T08:59:11.701Z,977.81
2022-09-07T09:00:10.793Z,1013.80
2022-09-07T09:02:28.390Z,1070.17
2022-09-07T09:04:16.314Z,1078.87
2022-09-07T09:05:18.982Z,1026.94
2022-09-07T09:06:12.053Z,1077.88
2022-09-07T09:07:10.368Z,1044.97
2022-09-07T09:08:10.384Z,1206.61
2022-09-07T09:09:10.421Z,1177.49
2022-09-07T09:10:10.480Z,1211.35
2022-09-07T09:11:10.544Z,948.78
2022-09-07T09:12:10.613Z,1015.24
2022-09-07T09:13:10.615Z,1089.93
2022-09-07T09:14:11.704Z,1019.17
2022-09-07T09:15:10.696Z,1054.72
2022-09-07T09:16:10.809Z,1074.20
2022-09-07T09:17:10.879Z,1086.65
2022-09-07T09:18:13.866Z,1082.41
2022-09-07T09:19:09.858Z,1068.02
2022-09-07T09:20:09.917Z,1096.79
2022-09-07T09:21:10.899Z,1112.22
2022-09-07T09:22:10.009Z,1122.65
2022-09-07T09:23:10.059Z,1111.56
2022-09-07T09:24:10.092Z,1088.62
2022-09-07T09:25:10.144Z,1096.54
2022-09-07T09:26:10.206Z,1084.47
2022-09-07T09:27:12.312Z,1152.93
2022-09-07T09:28:10.517Z,1108.91
2022-09-07T09:29:10.385Z,1094.34
2022-09-07T09:30:10.443Z,1137.15
2022-09-07T09:31:10.523Z,1166.90
2022-09-07T09:32:10.541Z,1198.20
2022-09-07T09:33:10.590Z,1155.47
2022-09-07T09:34:10.632Z,1164.20
2022-09-07T09:35:12.757Z,1159.25
2022-09-07T09:36:09.654Z,1158.91
2022-09-07T09:37:09.694Z,1169.10
2022-09-07T09:38:09.757Z,1174.98
2022-09-07T09:39:14.497Z,1220.03
2022-09-07T09:40:09.860Z,1214.49
2022-09-07T09:41:09.873Z,1214.15
2022-09-07T09:42:09.919Z,1229.50
2022-09-07T09:43:09.968Z,1241.91
2022-09-07T09:44:10.007Z,1256.06
2022-09-07T09:45:10.090Z,1264.76
2022-09-07T09:46:13.417Z,1276.83
2022-09-07T09:48:11.185Z,1301.22
2022-09-07T09:49:10.236Z,1290.51
2022-09-07T09:50:10.561Z,1309.10
2022-09-07T09:53:11.303Z,1294.88
2022-09-07T09:54:10.357Z,1309.08
2022-09-07T09:55:33.310Z,1224.69
2022-09-07T09:56:10.434Z,1333.35
2022-09-07T09:57:09.482Z,1302.21
2022-09-07T10:00:13.144Z,1394.07
2022-09-07T10:01:27.285Z,1341.50
2022-09-07T10:04:14.619Z,1013.56
2022-09-07T10:05:10.776Z,1016.44
2022-09-07T10:06:09.843Z,999.75
2022-09-07T10:07:09.910Z,994.64
2022-09-07T10:08:09.929Z,1031.10
2022-09-07T10:09:09.989Z,1026.72
2022-09-07T10:10:10.011Z,1020.02
2022-09-07T10:11:10.046Z,1280.55
2022-09-07T10:12:10.138Z,1370.13
2022-09-07T10:13:10.152Z,1334.69
2022-09-07T10:14:09.160Z,1255.31
2022-09-07T10:15:09.203Z,1223.04
2022-09-07T10:16:09.277Z,1217.78
2022-09-07T10:17:09.271Z,1237.79
2022-09-07T10:18:09.333Z,1271.20
2022-09-07T10:19:09.415Z,1228.59
2022-09-07T10:20:09.395Z,1079.45
2022-09-07T10:21:09.424Z,1026.83
2022-09-07T10:22:09.494Z,895.96
2022-09-07T10:23:09.525Z,900.67
2022-09-07T10:24:09.569Z,896.52
2022-09-07T10:25:09.574Z,885.95
2022-09-07T10:26:09.601Z,992.91
2022-09-07T10:27:09.668Z,849.49
2022-09-07T10:28:09.697Z,844.96
2022-09-07T10:29:10.150Z,845.60
2022-09-07T10:30:09.800Z,818.12
2022-09-07T10:31:14.087Z,788.37
2022-09-07T10:32:10.810Z,776.73
2022-09-07T10:33:10.005Z,780.26
2022-09-07T10:35:10.894Z,769.17
2022-09-07T10:36:08.890Z,797.73
2022-09-07T10:37:10.916Z,778.53
2022-09-07T10:38:08.951Z,740.95
2022-09-07T10:39:09.336Z,714.48
2022-09-07T10:40:09.087Z,707.17
2022-09-07T10:41:09.085Z,701.82
2022-09-07T10:42:09.102Z,693.53
2022-09-07T10:43:24.513Z,668.22
2022-09-07T10:44:10.151Z,649.81
2022-09-07T10:45:09.142Z,635.61
2022-09-07T10:46:10.538Z,608.71
2022-09-07T10:47:09.261Z,640.33
2022-09-07T10:48:09.296Z,688.78
2022-09-07T10:49:09.286Z,1375.27
2022-09-07T10:50:24.899Z,706.27
2022-09-07T10:51:14.247Z,694.50
2022-09-07T10:52:09.385Z,665.73
2022-09-07T10:53:36.650Z,659.73
2022-09-07T10:55:10.533Z,611.42
2022-09-07T10:56:11.653Z,578.24
2022-09-07T10:57:09.534Z,573.09
2022-09-07T10:58:09.554Z,1256.67
2022-09-07T10:59:08.521Z,1287.27
2022-09-07T11:00:10.283Z,1224.96
2022-09-07T11:01:09.731Z,810.46
2022-09-07T11:02:08.593Z,1355.61
2022-09-07T11:03:28.413Z,707.59
2022-09-07T11:04:09.660Z,773.95
2022-09-07T11:05:08.681Z,971.72
2022-09-07T11:06:08.694Z,1500.58
2022-09-07T11:07:15.377Z,1485.44
2022-09-07T11:08:09.723Z,776.43
2022-09-07T11:09:17.346Z,699.88
2022-09-07T11:10:09.759Z,690.39
2022-09-07T11:11:08.783Z,659.89
2022-09-07T11:12:08.813Z,621.99
2022-09-07T11:13:08.970Z,616.25
2022-09-07T11:14:13.566Z,626.53
2022-09-07T11:15:09.880Z,633.17
2022-09-07T11:16:09.195Z,632.83
2022-09-07T11:17:09.014Z,626.62
2022-09-07T11:18:08.968Z,623.84
2022-09-07T11:20:10.044Z,644.86
2022-09-07T11:21:09.069Z,681.53
2022-09-07T11:22:09.106Z,710.54
2022-09-07T11:23:11.248Z,727.58
2022-09-07T11:24:09.178Z,732.26
2022-09-07T11:26:09.229Z,802.50
2022-09-07T11:27:08.309Z,885.44
2022-09-07T11:28:08.342Z,982.10
2022-09-07T11:30:10.480Z,1180.06
2022-09-07T11:31:08.460Z,1259.42
2022-09-07T11:32:08.517Z,1339.38
2022-09-07T11:33:08.562Z,1386.46
2022-09-07T11:34:24.370Z,1418.31
2022-09-07T11:35:09.631Z,1461.05
2022-09-07T11:36:12.277Z,1480.83
2022-09-07T11:37:08.712Z,1502.67
2022-09-07T11:38:08.755Z,1543.52
2022-09-07T11:39:08.816Z,1524.34
2022-09-07T11:40:09.040Z,1481.40
2022-09-07T11:41:08.952Z,1491.86
2022-09-07T11:43:11.522Z,1574.40
2022-09-07T11:44:07.989Z,1522.52
2022-09-07T11:45:08.010Z,1474.39
2022-09-07T11:46:08.104Z,1523.36
2022-09-07T11:47:08.221Z,1554.46
2022-09-07T11:48:08.154Z,1544.88
2022-09-07T11:49:08.182Z,1519.95
2022-09-07T11:50:08.190Z,1520.39
2022-09-07T11:51:08.256Z,1480.40
2022-09-07T11:52:08.303Z,1464.96
2022-09-07T11:53:08.359Z,1466.99
2022-09-07T11:54:08.404Z,1472.49
2022-09-07T11:55:08.459Z,1447.04
2022-09-07T11:56:08.446Z,1420.71
2022-09-07T11:57:08.515Z,1381.22
2022-09-07T11:58:08.506Z,1322.36
2022-09-07T11:59:08.619Z,1255.81
2022-09-07T12:00:08.569Z,1231.39
2022-09-07T12:01:08.579Z,1220.62
2022-09-07T12:02:08.644Z,1211.59
2022-09-07T12:03:08.738Z,1207.19
2022-09-07T12:04:13.244Z,1206.58
2022-09-07T12:05:09.658Z,1159.78
2022-09-07T12:06:07.726Z,1302.40
2022-09-07T12:07:08.781Z,1170.05
2022-09-07T12:08:07.753Z,1142.07
2022-09-07T12:09:07.760Z,1272.94
2022-09-07T12:10:10.867Z,1229.77
2022-09-07T12:11:07.814Z,1242.85
2022-09-07T12:12:08.825Z,1064.80
2022-09-07T12:13:07.886Z,1026.15
2022-09-07T12:14:09.826Z,1095.27
2022-09-07T12:15:09.017Z,1037.08
2022-09-07T12:16:08.919Z,1183.09
2022-09-07T12:17:08.922Z,1199.62
2022-09-07T12:18:07.909Z,1252.04
2022-09-07T12:19:08.972Z,1183.85
2022-09-07T12:20:08.005Z,1213.55
2022-09-07T12:21:07.982Z,1313.88
2022-09-07T12:22:07.998Z,1347.51
2022-09-07T12:23:08.112Z,1298.96
2022-09-07T12:24:08.072Z,1301.24
2022-09-07T12:25:08.132Z,1302.78
2022-09-07T12:26:09.141Z,1316.24
2022-09-07T12:27:08.081Z,1314.09
2022-09-07T12:28:09.274Z,1301.97
2022-09-07T12:29:09.247Z,1291.23
2022-09-07T12:30:10.218Z,1310.76
2022-09-07T12:31:08.194Z,1333.29
2022-09-07T12:32:53.456Z,1338.29
2022-09-07T12:33:09.209Z,1321.02
2022-09-07T12:34:08.242Z,1311.27
2022-09-07T12:35:08.230Z,1291.92
2022-09-07T12:36:08.239Z,1281.90
2022-09-07T12:37:12.276Z,1251.80
2022-09-07T12:38:08.326Z,1293.46
2022-09-07T12:39:08.329Z,1408.67
2022-09-07T12:40:09.442Z,1255.86
2022-09-07T12:41:08.362Z,1240.95
2022-09-07T12:43:10.490Z,1370.89
2022-09-07T12:44:08.458Z,1409.18
2022-09-07T12:45:08.496Z,1445.61
2022-09-07T12:46:08.539Z,1446.84
2022-09-07T12:47:08.686Z,1452.57
2022-09-07T12:48:09.527Z,1477.03
2022-09-07T12:49:08.610Z,1474.80
2022-09-07T12:50:10.156Z,1481.59
2022-09-07T12:51:07.610Z,1476.56
2022-09-07T12:52:15.388Z,1482.24
2022-09-07T12:53:08.626Z,1419.44
2022-09-07T12:54:08.751Z,1453.05
2022-09-07T12:55:27.450Z,1361.62
2022-09-07T12:56:16.395Z,1434.18
2022-09-07T12:58:08.760Z,1371.31
2022-09-07T12:59:16.071Z,1369.45
2022-09-07T13:00:08.779Z,1379.03
2022-09-07T13:01:09.478Z,1371.73
2022-09-07T13:02:08.929Z,1362.95
2022-09-07T13:03:49.416Z,1350.85
2022-09-07T13:04:10.609Z,1466.50
2022-09-07T13:05:08.939Z,1490.47
2022-09-07T13:06:09.742Z,1385.98
2022-09-07T13:07:08.966Z,1395.29
2022-09-07T13:08:09.608Z,1429.09
2022-09-07T13:09:09.030Z,1379.40
2022-09-07T13:10:09.115Z,1406.08
2022-09-07T13:11:08.080Z,1421.67
2022-09-07T13:12:09.472Z,1418.63
2022-09-07T13:13:09.134Z,1399.56
2022-09-07T13:14:10.005Z,1394.12
2022-09-07T13:15:12.692Z,1380.43
2022-09-07T13:16:08.392Z,1364.98
2022-09-07T13:17:23.933Z,1324.34
2022-09-07T13:18:08.232Z,1316.34
2022-09-07T13:19:10.323Z,1283.64
2022-09-07T13:20:08.288Z,1286.40
2022-09-07T13:21:08.365Z,1283.56
2022-09-07T13:22:08.344Z,1270.29
2022-09-07T13:23:10.419Z,1237.30
2022-09-07T13:25:09.512Z,1167.29